Weather History for Huntingburg, IN

Change the Weather History Date:

Saturday, January 11, 2014

  Actual Average Record
Temperature  
Mean Temperature 42 °F -  
Max Temperature 51 °F 37 °F 62 °F (2005)
Min Temperature 33 °F 23 °F -2 °F (1997)
Degree Days  
Heating Degree Days 24    
Moisture  
Dew Point 38 °F    
Average Humidity 85    
Maximum Humidity 94    
Minimum Humidity 75    
Precipitation  
Precipitation 0.03 in - - ()
Sea Level Pressure  
Sea Level Pressure 29.70 in    
Wind  
Wind Speed 12 mph (SW)    
Max Wind Speed 23 mph    
Max Gust Speed 31 mph    
Visibility 10 miles    
Events      
Averages and records for this station are not official NWS values.
T = Trace of Precipitation, MM = Missing Value Source: NWS Daily Summary

Daily Weather History Graph

Daily Weather History Graph

Search for Another Location

Airport:

Trip Planner

Search our weather history database for the weather conditions in past years. The results will help you decide how hot, cold, wet, or windy it might be!

Date:

Astronomy

Jan. 11, 2014 Rise Set
Actual Time 8:04 AM EST 5:47 PM EST
Civil Twilight 7:35 AM EST 6:16 PM EST
Nautical Twilight 7:02 AM EST 6:49 PM EST
Astronomical Twilight 6:30 AM EST 7:21 PM EST
Moon 2:30 PM EST (1/11) 4:09 AM EST (1/11)
Length of Visible Light 10h 41m
Length of Day
9h 43m
Waxing Gibbous, 83% of the Moon is Illuminated
Jan 11
Waxing Gibbous
Jan 15
Full
Jan 24
Last Quarter
Jan 30
New
Feb 6
First Quarter

Hourly Weather History & Observations

Time (EST) Temp. Windchill Dew Point Humidity Pressure Visibility Wind Dir Wind Speed Gust Speed Precip Events Conditions
12:15 AM 48.2 °F - 46.4 °F 93% 29.71 in 5.0 mi South 8.1 mph - N/A   Mostly Cloudy
12:35 AM 48.2 °F - 46.4 °F 93% 29.68 in 5.0 mi South 11.5 mph - N/A   Mostly Cloudy
12:55 AM 48.2 °F - 46.4 °F 93% 29.65 in 9.0 mi South 13.8 mph 18.4 mph 0.02 in   Overcast
1:15 AM 48.2 °F - 46.4 °F 93% 29.64 in 10.0 mi South 12.7 mph 19.6 mph N/A   Mostly Cloudy
1:35 AM 48.2 °F - 46.4 °F 93% 29.62 in 10.0 mi South 8.1 mph - N/A   Clear
1:55 AM 48.2 °F - 46.4 °F 93% 29.62 in 10.0 mi South 10.4 mph - N/A   Partly Cloudy
2:15 AM 48.2 °F - 46.4 °F 93% 29.61 in 10.0 mi South 8.1 mph - N/A   Partly Cloudy
2:35 AM 48.2 °F - 46.4 °F 93% 29.60 in 10.0 mi South 12.7 mph - N/A   Scattered Clouds
2:55 AM 48.2 °F - 46.4 °F 93% 29.60 in 10.0 mi South 11.5 mph - N/A   Scattered Clouds
3:15 AM 48.2 °F - 46.4 °F 93% 29.59 in 10.0 mi South 11.5 mph - N/A   Scattered Clouds
3:35 AM 48.2 °F - 46.4 °F 93% 29.60 in 10.0 mi South 11.5 mph - N/A   Mostly Cloudy
3:55 AM 50.0 °F - 48.2 °F 94% 29.59 in 10.0 mi SSW 10.4 mph - 0.01 in   Overcast
4:15 AM 50.0 °F - 48.2 °F 94% 29.57 in 10.0 mi South 9.2 mph 17.3 mph N/A   Overcast
4:35 AM 50.0 °F - 48.2 °F 94% 29.56 in 10.0 mi SSW 12.7 mph - N/A   Overcast
4:55 AM 50.0 °F - 48.2 °F 94% 29.56 in 10.0 mi SSW 11.5 mph - N/A   Overcast
5:15 AM 50.0 °F - 48.2 °F 94% 29.56 in 10.0 mi SSW 13.8 mph - N/A   Overcast
5:35 AM 50.0 °F - 48.2 °F 94% 29.55 in 9.0 mi SW 17.3 mph 23.0 mph N/A   Overcast
5:55 AM 50.0 °F - 48.2 °F 94% 29.56 in 10.0 mi SW 13.8 mph - N/A   Overcast
6:15 AM 50.0 °F - 48.2 °F 94% 29.57 in 10.0 mi SW 10.4 mph - N/A   Overcast
6:35 AM 50.0 °F - 48.2 °F 94% 29.57 in 10.0 mi WSW 12.7 mph - N/A   Overcast
6:55 AM 50.0 °F - 46.4 °F 87% 29.57 in 5.0 mi WSW 16.1 mph 19.6 mph N/A   Overcast
7:15 AM 48.2 °F - 46.4 °F 93% 29.57 in 5.0 mi WSW 12.7 mph - N/A   Overcast
7:35 AM 48.2 °F - 46.4 °F 93% 29.57 in 10.0 mi WSW 10.4 mph - N/A   Overcast
7:55 AM 48.2 °F - 46.4 °F 93% 29.59 in 10.0 mi WSW 13.8 mph 18.4 mph N/A   Overcast
8:15 AM 48.2 °F - 44.6 °F 87% 29.60 in 10.0 mi WSW 15.0 mph 24.2 mph N/A   Overcast
8:35 AM 46.4 °F 39.2 °F 42.8 °F 87% 29.61 in 10.0 mi West 18.4 mph - N/A   Mostly Cloudy
8:55 AM 46.4 °F 38.7 °F 39.2 °F 76% 29.63 in 10.0 mi West 20.7 mph 31.1 mph N/A   Partly Cloudy
9:15 AM 44.6 °F 36.6 °F 37.4 °F 76% 29.64 in 10.0 mi West 19.6 mph 26.5 mph N/A   Mostly Cloudy
9:35 AM 42.8 °F 34.8 °F 35.6 °F 76% 29.65 in 10.0 mi West 17.3 mph 26.5 mph N/A   Overcast
9:55 AM 42.8 °F 35.1 °F 35.6 °F 76% 29.66 in 10.0 mi West 16.1 mph 23.0 mph N/A   Overcast
10:15 AM 42.8 °F 34.3 °F 35.6 °F 76% 29.67 in 10.0 mi West 19.6 mph 26.5 mph N/A   Mostly Cloudy
10:35 AM 42.8 °F 35.4 °F 35.6 °F 76% 29.68 in 10.0 mi West 15.0 mph 23.0 mph N/A   Mostly Cloudy
10:55 AM 42.8 °F 34.8 °F 35.6 °F 76% 29.69 in 10.0 mi West 17.3 mph 21.9 mph N/A   Overcast
11:15 AM 42.8 °F 34.5 °F 35.6 °F 76% 29.70 in 10.0 mi West 18.4 mph 21.9 mph N/A   Overcast
11:35 AM 41.0 °F 33.1 °F 35.6 °F 81% 29.70 in 10.0 mi West 15.0 mph - N/A   Overcast
11:55 AM 41.0 °F 31.1 °F 35.6 °F 81% 29.71 in 10.0 mi West 23.0 mph - N/A   Overcast
12:15 PM 41.0 °F 31.4 °F 33.8 °F 76% 29.71 in 10.0 mi West 21.9 mph 26.5 mph N/A   Overcast
12:35 PM 41.0 °F 33.1 °F 35.6 °F 81% 29.71 in 10.0 mi West 15.0 mph - N/A   Overcast
12:55 PM 41.0 °F 31.9 °F 33.8 °F 76% 29.71 in 10.0 mi West 19.6 mph 25.3 mph N/A   Overcast
1:15 PM 41.0 °F 33.1 °F 35.6 °F 81% 29.70 in 10.0 mi West 15.0 mph 23.0 mph N/A   Overcast
1:35 PM 39.2 °F 30.5 °F 33.8 °F 81% 29.70 in 10.0 mi West 16.1 mph - N/A   Overcast
1:55 PM 39.2 °F 29.6 °F 33.8 °F 81% 29.70 in 10.0 mi West 19.6 mph 24.2 mph N/A   Overcast
2:15 PM 39.2 °F 30.5 °F 33.8 °F 81% 29.70 in 10.0 mi West 16.1 mph 25.3 mph N/A   Overcast
2:35 PM 39.2 °F 29.6 °F 33.8 °F 81% 29.71 in 10.0 mi West 19.6 mph 26.5 mph N/A   Overcast
2:55 PM 39.2 °F 30.2 °F 33.8 °F 81% 29.72 in 10.0 mi West 17.3 mph 21.9 mph N/A   Overcast
3:15 PM 39.2 °F 30.8 °F 33.8 °F 81% 29.73 in 10.0 mi West 15.0 mph - N/A   Overcast
3:35 PM 39.2 °F 31.2 °F 33.8 °F 81% 29.73 in 10.0 mi West 13.8 mph 19.6 mph N/A   Overcast
3:55 PM 39.2 °F 32.0 °F 33.8 °F 81% 29.74 in 10.0 mi West 11.5 mph - N/A   Overcast
4:15 PM 39.2 °F 30.5 °F 33.8 °F 81% 29.75 in 10.0 mi WSW 16.1 mph 20.7 mph N/A   Overcast
4:35 PM 39.2 °F 29.8 °F 32.0 °F 75% 29.76 in 10.0 mi West 18.4 mph - N/A   Overcast
4:55 PM 39.2 °F 30.2 °F 33.8 °F 81% 29.77 in 10.0 mi West 17.3 mph 24.2 mph N/A   Overcast
5:15 PM 39.2 °F 32.5 °F 33.8 °F 81% 29.77 in 10.0 mi West 10.4 mph - N/A   Overcast
5:35 PM 37.4 °F 31.4 °F 33.8 °F 87% 29.78 in 10.0 mi West 8.1 mph - N/A   Overcast
5:55 PM 37.4 °F 32.1 °F 30.2 °F 75% 29.78 in 10.0 mi WSW 6.9 mph - N/A   Scattered Clouds
6:15 PM 35.6 °F 31.7 °F 30.2 °F 81% 29.79 in 10.0 mi SW 4.6 mph - N/A   Clear
6:35 PM 35.6 °F 30.7 °F 30.2 °F 81% 29.79 in 10.0 mi SW 5.8 mph - N/A   Clear
6:55 PM 35.6 °F 29.9 °F 30.2 °F 81% 29.80 in 10.0 mi SSW 6.9 mph - N/A   Clear
7:15 PM 35.6 °F 31.7 °F 30.2 °F 81% 29.80 in 10.0 mi SSW 4.6 mph - N/A   Clear
7:35 PM 33.8 °F 29.6 °F 30.2 °F 87% 29.82 in 10.0 mi SSW 4.6 mph - N/A   Partly Cloudy
7:55 PM 35.6 °F 31.7 °F 30.2 °F 81% 29.82 in 10.0 mi South 4.6 mph - N/A   Scattered Clouds
8:15 PM 33.8 °F 28.6 °F 30.2 °F 87% 29.83 in 10.0 mi SSW 5.8 mph - N/A   Mostly Cloudy
8:35 PM 35.6 °F 29.2 °F 30.2 °F 81% 29.83 in 10.0 mi SW 8.1 mph - N/A   Scattered Clouds
8:55 PM 33.8 °F 27.7 °F 30.2 °F 87% 29.84 in 10.0 mi SW 6.9 mph - N/A   Clear
9:15 PM 33.8 °F 27.0 °F 30.2 °F 87% 29.84 in 10.0 mi SSW 8.1 mph - N/A   Clear
9:35 PM 35.6 °F 29.2 °F 30.2 °F 81% 29.84 in 10.0 mi SSW 8.1 mph - N/A   Clear
9:55 PM 35.6 °F 28.6 °F 32.0 °F 87% 29.85 in 10.0 mi SSW 9.2 mph - N/A   Scattered Clouds
10:15 PM 35.6 °F 28.6 °F 30.2 °F 81% 29.86 in 10.0 mi SW 9.2 mph - N/A   Partly Cloudy
10:35 PM 35.6 °F 28.6 °F 32.0 °F 87% 29.86 in 10.0 mi SW 9.2 mph - N/A   Clear
10:55 PM 37.4 °F 29.8 °F 32.0 °F 81% 29.87 in 10.0 mi SW 11.5 mph - N/A   Clear
11:15 PM 37.4 °F 29.3 °F 33.8 °F 87% 29.89 in 10.0 mi WSW 12.7 mph 16.1 mph N/A   Clear
11:35 PM 37.4 °F 29.8 °F 33.8 °F 87% 29.89 in 10.0 mi WSW 11.5 mph - N/A   Clear
11:55 PM 35.6 °F 28.6 °F 32.0 °F 87% 29.90 in 10.0 mi WSW 9.2 mph - N/A   Clear